Time;durP1;ratioP1;P1;durP2;ratioP2;P2;SDS_P1;SDS_P2;PMS_P1;PMS_P2;Temp;Humidity;BMP_temperature;BMP_pressure;BME280_temperature;BME280_humidity;BME280_pressure;Samples;Min_cycle;Max_cycle;Signal;HPM_P1;HPM_P2
2022/06/17 00:01:24;;;;;;;10.68;5.22;;;;;;;15.78;72.63;102253.06;4988146;28;20050;-72
2022/06/17 00:03:53;;;;;;;7.35;6.10;;;;;;;15.78;72.09;102251.22;4992473;28;20040;-72
2022/06/17 00:06:24;;;;;;;7.25;5.88;;;;;;;15.76;72.88;102253.19;4988942;28;20038;-72
2022/06/17 00:08:52;;;;;;;6.18;5.00;;;;;;;15.78;72.23;102242.97;4989869;28;20589;-72
2022/06/17 00:11:37;;;;;;;10.10;5.55;;;;;;;15.79;71.06;102247.47;4989064;28;20133;-70
2022/06/17 00:14:10;;;;;;;8.80;4.93;;;;;;;15.76;71.72;102239.47;4989286;28;20898;-72
2022/06/17 00:16:35;;;;;;;;;;;;;;;15.86;68.52;102245.19;4989785;28;20121;-72
2022/06/17 00:19:01;;;;;;;6.20;5.18;;;;;;;15.77;71.64;102245.84;4988026;28;20444;-69
2022/06/17 00:21:30;;;;;;;9.07;5.40;;;;;;;15.76;72.13;102255.03;4989649;28;20046;-71
2022/06/17 00:23:56;;;;;;;6.18;5.07;;;;;;;15.73;71.83;102267.13;4989873;28;20042;-72
2022/06/17 00:26:22;;;;;;;7.63;5.40;;;;;;;15.72;71.63;102267.25;4988669;28;20042;-71
2022/06/17 00:28:48;;;;;;;5.82;5.15;;;;;;;15.70;72.26;102264.59;4971375;28;20296;-71
2022/06/17 00:31:15;;;;;;;8.73;6.03;;;;;;;15.68;72.14;102261.09;4971525;28;20038;-72
2022/06/17 00:33:40;;;;;;;6.57;5.75;;;;;;;15.59;73.67;102260.84;4991853;28;20038;-69
2022/06/17 00:36:11;;;;;;;7.80;6.60;;;;;;;15.50;73.91;102255.00;4987755;28;20030;-72
2022/06/17 00:38:37;;;;;;;6.60;5.93;;;;;;;15.47;72.98;102255.22;4988149;28;20042;-72
2022/06/17 00:41:14;;;;;;;7.30;5.88;;;;;;;15.47;72.37;102260.69;4988389;28;20035;-72
2022/06/17 00:43:40;;;;;;;6.93;5.20;;;;;;;15.48;72.71;102267.97;4988915;28;20482;-71
2022/06/17 00:46:24;;;;;;;9.15;5.80;;;;;;;15.52;72.18;102271.34;4970408;28;20101;-72
2022/06/17 00:49:00;;;;;;;7.65;5.63;;;;;;;15.51;72.56;102262.25;4955004;28;20124;-72
2022/06/17 00:51:32;;;;;;;12.90;5.63;;;;;;;15.51;73.11;102262.25;4989434;28;20030;-72
2022/06/17 00:54:04;;;;;;;7.30;5.43;;;;;;;15.50;73.27;102256.88;4989695;28;20178;-72
2022/06/17 00:56:34;;;;;;;;;;;;;;;15.55;70.48;102246.44;4989549;28;20446;-72
2022/06/17 00:59:09;;;;;;;8.07;6.82;;;;;;;15.43;73.13;102250.06;5008671;28;19996;-69
2022/06/17 01:01:50;;;;;;;8.55;6.30;;;;;;;15.40;72.98;102251.16;5008285;28;20042;-72
2022/06/17 01:04:21;;;;;;;7.57;5.97;;;;;;;15.37;73.52;102264.19;4985324;28;20074;-71
2022/06/17 01:07:04;;;;;;;9.13;6.13;;;;;;;15.35;73.77;102260.72;4988816;28;20443;-71
2022/06/17 01:12:21;;;;;;;11.77;7.50;;;;;;;15.26;74.81;102251.25;4987854;28;20293;-71
2022/06/17 01:14:47;;;;;;;8.35;6.85;;;;;;;15.20;74.15;102257.13;4970398;28;20116;-72
2022/06/17 01:17:16;;;;;;;12.38;7.75;;;;;;;15.16;74.29;102262.00;4954198;28;20088;-70
2022/06/17 01:19:57;;;;;;;13.27;8.80;;;;;;;15.13;73.44;102261.31;4969461;28;20478;-72
2022/06/17 01:22:26;;;;;;;17.58;8.70;;;;;;;15.11;73.77;102252.28;4971454;28;20080;-72
2022/06/17 01:25:08;;;;;;;11.35;8.82;;;;;;;15.09;72.78;102257.91;4970693;28;20038;-72
2022/06/17 01:27:44;;;;;;;13.32;7.85;;;;;;;15.08;73.40;102247.03;4955163;28;20120;-71
2022/06/17 01:30:14;;;;;;;10.48;8.02;;;;;;;15.07;74.32;102248.03;4970256;28;20034;-72
2022/06/17 01:32:49;;;;;;;11.63;7.82;;;;;;;15.05;74.06;102243.50;4970317;28;20088;-72
2022/06/17 01:35:15;;;;;;;11.13;8.05;;;;;;;15.01;74.84;102244.75;4984452;28;20025;-71
2022/06/17 01:37:41;;;;;;;9.40;6.68;;;;;;;15.01;74.14;102243.84;4989828;28;20670;-72
2022/06/17 01:40:07;;;;;;;12.50;7.80;;;;;;;15.00;74.31;102247.56;5007738;28;20120;-68
2022/06/17 01:42:35;;;;;;;9.88;6.75;;;;;;;14.99;74.06;102252.16;4995816;28;20045;-72
2022/06/17 01:45:01;;;;;;;12.02;7.32;;;;;;;14.97;74.21;102240.44;4969719;28;20069;-68
2022/06/17 01:47:29;;;;;;;8.48;6.95;;;;;;;14.96;74.49;102257.84;4970562;28;20030;-72
2022/06/17 01:50:00;;;;;;;12.88;7.72;;;;;;;14.95;74.19;102258.84;4986098;28;20625;-72
2022/06/17 01:52:34;;;;;;;12.60;8.45;;;;;;;14.91;73.87;102262.78;4971102;28;20101;-69
2022/06/17 01:55:07;;;;;;;11.50;8.65;;;;;;;14.85;75.07;102260.47;4970351;28;20034;-70
2022/06/17 01:57:39;;;;;;;10.52;8.10;;;;;;;14.77;75.09;102258.22;4988172;28;20426;-72
2022/06/17 02:00:19;;;;;;;10.95;8.40;;;;;;;14.73;74.75;102261.28;4988911;28;20044;-72
2022/06/17 02:02:52;;;;;;;11.13;8.88;;;;;;;14.62;77.09;102253.78;4989218;28;20438;-71
2022/06/17 02:05:19;;;;;;;10.98;7.90;;;;;;;14.62;75.92;102256.53;4982949;28;20050;-72
2022/06/17 02:07:58;;;;;;;11.63;8.48;;;;;;;14.64;74.93;102256.41;4970031;28;20042;-72
2022/06/17 02:10:29;;;;;;;12.52;8.95;;;;;;;14.61;75.68;102249.28;4985150;28;20371;-72
2022/06/17 02:12:56;;;;;;;12.63;10.25;;;;;;;14.62;75.19;102247.44;4969578;28;20155;-72
2022/06/17 02:15:24;;;;;;;13.13;9.23;;;;;;;14.58;75.60;102248.63;4969395;28;20049;-71
2022/06/17 02:18:19;;;;;;;15.63;9.07;;;;;;;14.58;75.72;102254.09;4958981;28;20061;-72
2022/06/17 02:20:57;;;;;;;12.38;8.75;;;;;;;14.58;75.26;102243.13;4968687;28;20038;-71
2022/06/17 02:23:26;;;;;;;10.93;9.20;;;;;;;14.58;75.82;102254.97;4987414;28;20763;-71
2022/06/17 02:25:54;;;;;;;11.70;9.27;;;;;;;14.57;75.37;102250.47;4969373;28;20030;-71
2022/06/17 02:28:22;;;;;;;12.57;9.23;;;;;;;14.56;75.67;102251.47;4969180;28;20081;-72
2022/06/17 02:30:49;;;;;;;12.43;9.82;;;;;;;14.56;75.41;102253.34;4987285;28;20540;-71
2022/06/17 02:33:14;;;;;;;14.13;9.73;;;;;;;14.53;75.93;102246.19;4989170;28;20504;-72
2022/06/17 02:36:03;;;;;;;13.07;9.25;;;;;;;14.56;74.60;102247.84;4990082;28;20046;-72
2022/06/17 02:38:32;;;;;;;10.82;9.07;;;;;;;14.53;75.69;102246.19;4985213;28;20034;-72
2022/06/17 02:41:05;;;;;;;11.90;9.57;;;;;;;14.51;76.25;102243.56;4987456;28;20802;-71
2022/06/17 02:43:45;;;;;;;12.88;8.77;;;;;;;14.50;75.61;102247.28;4968942;28;20042;-71
2022/06/17 02:46:18;;;;;;;11.40;8.95;;;;;;;14.48;75.83;102246.50;4969115;28;20083;-72
2022/06/17 02:48:49;;;;;;;10.77;9.65;;;;;;;14.43;75.77;102248.63;4969304;28;20030;-70
2022/06/17 02:51:15;;;;;;;11.55;9.40;;;;;;;14.39;75.49;102248.94;4986517;28;20038;-72
2022/06/17 02:53:42;;;;;;;12.23;9.60;;;;;;;14.36;76.00;102254.59;4987406;28;20057;-71
2022/06/17 02:56:21;;;;;;;16.30;10.35;;;;;;;14.35;75.71;102252.84;4968714;28;20042;-72
2022/06/17 02:58:55;;;;;;;16.13;10.30;;;;;;;14.31;75.99;102249.41;4984770;28;20525;-72
2022/06/17 03:01:24;;;;;;;13.60;9.25;;;;;;;14.32;75.72;102248.47;4970154;28;20112;-72
2022/06/17 03:04:06;;;;;;;14.23;10.40;;;;;;;14.35;75.79;102247.38;4987934;28;20037;-67
2022/06/17 03:06:37;;;;;;;16.30;10.13;;;;;;;14.36;75.94;102235.44;4973011;28;20035;-72
2022/06/17 03:09:25;;;;;;;12.00;9.15;;;;;;;14.38;75.56;102247.19;5001226;28;20056;-72
2022/06/17 03:11:58;;;;;;;14.75;9.57;;;;;;;14.37;75.79;102246.31;4987044;28;20034;-72
2022/06/17 03:14:28;;;;;;;13.43;10.00;;;;;;;14.39;76.03;102244.31;4972656;28;20038;-71
2022/06/17 03:16:59;;;;;;;12.32;10.45;;;;;;;14.42;76.12;102243.25;4972949;28;20038;-72
2022/06/17 03:19:27;;;;;;;20.55;11.10;;;;;;;14.40;76.14;102251.56;4974268;28;20481;-71
2022/06/17 03:21:53;;;;;;;14.90;10.85;;;;;;;14.37;75.76;102250.91;4973326;28;20026;-71
2022/06/17 03:24:23;;;;;;;17.38;10.85;;;;;;;14.36;76.24;102260.97;4972605;28;20092;-72
2022/06/17 03:26:56;;;;;;;13.65;10.07;;;;;;;14.35;76.21;102266.53;4972053;28;20038;-72
2022/06/17 03:29:24;;;;;;;14.02;10.80;;;;;;;14.33;76.67;102263.03;4972427;28;20042;-71
2022/06/17 03:31:57;;;;;;;14.80;11.55;;;;;;;14.30;77.58;102261.34;4972615;28;20049;-71
2022/06/17 03:34:45;;;;;;;14.05;11.70;;;;;;;14.33;76.20;102266.66;4975780;28;20035;-72
2022/06/17 03:37:39;;;;;;;17.73;11.65;;;;;;;14.38;76.73;102275.44;4972856;28;20030;-71
2022/06/17 03:40:39;;;;;;;15.45;11.55;;;;;;;14.48;75.67;102282.09;4990463;28;20037;-70
2022/06/17 03:43:23;;;;;;;14.55;11.93;;;;;;;14.52;76.44;102291.88;4958409;28;20775;-71
2022/06/17 03:46:02;;;;;;;13.55;10.70;;;;;;;14.55;76.54;102274.38;4971795;28;20105;-71
2022/06/17 03:48:47;;;;;;;12.90;10.75;;;;;;;14.67;77.33;102289.09;4973062;28;20034;-71
2022/06/17 03:51:16;;;;;;;15.48;11.05;;;;;;;14.70;77.06;102284.28;4990854;28;20123;-70
2022/06/17 03:53:44;;;;;;;13.82;10.05;;;;;;;14.74;76.60;102291.31;4992036;28;20037;-72
2022/06/17 03:56:26;;;;;;;13.77;10.75;;;;;;;14.80;76.66;102284.56;4974412;28;20030;-71
2022/06/17 03:58:56;;;;;;;14.57;11.82;;;;;;;14.86;77.24;102286.88;4971985;28;20045;-71
2022/06/17 04:01:32;;;;;;;14.48;11.50;;;;;;;14.91;76.55;102281.06;5005663;28;20143;-71
2022/06/17 04:04:11;;;;;;;15.70;11.73;;;;;;;14.94;76.93;102278.13;4986531;28;20136;-71
2022/06/17 04:06:41;;;;;;;17.45;12.15;;;;;;;14.94;78.45;102278.13;4988127;28;20092;-71
2022/06/17 04:09:21;;;;;;;16.40;13.52;;;;;;;14.89;77.51;102277.56;4988494;28;20545;-71
2022/06/17 04:11:51;;;;;;;16.10;12.63;;;;;;;14.92;76.89;102275.50;4971044;28;20121;-71
2022/06/17 04:14:27;;;;;;;16.08;12.73;;;;;;;14.98;77.07;102282.44;4987816;28;20505;-72
2022/06/17 04:17:11;;;;;;;15.80;12.13;;;;;;;15.04;76.78;102282.00;4981480;28;20033;-72
2022/06/17 04:19:45;;;;;;;16.02;13.20;;;;;;;15.09;77.93;102281.69;4987369;28;20486;-71
2022/06/17 04:22:25;;;;;;;20.73;12.65;;;;;;;15.14;77.16;102277.63;4972052;28;20121;-72
2022/06/17 04:25:17;;;;;;;15.75;11.82;;;;;;;15.20;76.84;102271.75;4989145;28;20049;-71
2022/06/17 04:27:59;;;;;;;23.85;13.52;;;;;;;15.24;77.84;102266.91;4987657;28;20092;-72
2022/06/17 04:30:33;;;;;;;15.02;12.18;;;;;;;15.29;76.94;102264.72;4987956;28;20037;-71
2022/06/17 04:33:07;;;;;;;17.15;12.68;;;;;;;15.32;76.92;102267.28;4955952;28;20140;-72
2022/06/17 04:35:35;;;;;;;15.77;12.50;;;;;;;15.40;76.84;102272.22;4984908;28;20030;-71
2022/06/17 04:38:01;;;;;;;18.73;13.27;;;;;;;15.43;77.29;102261.03;4971703;28;20077;-71
2022/06/17 04:41:00;;;;;;;16.67;12.45;;;;;;;15.48;77.70;102246.03;4972254;28;20084;-72
2022/06/17 04:43:49;;;;;;;17.52;13.52;;;;;;;15.54;77.54;102250.19;4988007;28;20053;-72
2022/06/17 04:46:41;;;;;;;18.30;13.63;;;;;;;15.60;77.24;102251.63;4971148;28;20049;-72
2022/06/17 04:49:25;;;;;;;16.25;12.20;;;;;;;15.68;76.08;102254.72;4959927;28;20065;-70
2022/06/17 04:51:57;;;;;;;15.70;12.27;;;;;;;15.71;77.47;102247.13;4971848;28;20482;-72
2022/06/17 04:54:24;;;;;;;21.58;14.27;;;;;;;15.72;79.22;102237.94;4971631;28;20034;-71
2022/06/17 04:57:10;;;;;;;19.67;14.07;;;;;;;15.73;77.67;102241.56;4988824;28;20076;-71
2022/06/17 05:00:01;;;;;;;;;;;;;;;15.86;75.37;102238.81;4971151;28;20425;-72
2022/06/17 05:02:32;;;;;;;19.73;13.98;;;;;;;15.91;78.73;102236.59;4987704;28;20628;-72
2022/06/17 05:05:34;;;;;;;16.90;12.85;;;;;;;16.02;77.37;102245.78;4954408;28;20521;-72
2022/06/17 05:08:03;;;;;;;15.05;12.82;;;;;;;16.12;77.79;102240.50;4978618;28;20038;-72
2022/06/17 05:10:39;;;;;;;17.55;13.95;;;;;;;16.22;77.41;102238.81;4986162;28;20513;-72
2022/06/17 05:13:31;;;;;;;17.45;13.57;;;;;;;16.33;77.58;102247.16;4970412;28;20037;-71
2022/06/17 05:15:58;;;;;;;;;;;;;;;16.45;74.88;102247.22;4971043;28;20030;-71
2022/06/17 05:18:23;;;;;;;18.35;13.20;;;;;;;16.53;77.31;102244.78;4987102;28;20028;-72
2022/06/17 05:20:57;;;;;;;17.15;13.35;;;;;;;16.60;76.47;102235.09;4970456;28;20153;-72
2022/06/17 05:23:22;;;;;;;17.92;14.10;;;;;;;16.71;76.71;102231.53;4970677;28;20117;-71
2022/06/17 05:25:49;;;;;;;17.90;14.25;;;;;;;16.77;75.54;102234.72;4954137;28;20034;-69
2022/06/17 05:28:20;;;;;;;16.83;12.52;;;;;;;16.82;76.07;102248.09;4970175;28;20037;-71
2022/06/17 05:30:52;;;;;;;17.20;13.90;;;;;;;16.89;75.01;102246.66;4970003;28;20089;-71
2022/06/17 05:33:20;;;;;;;19.42;13.90;;;;;;;16.94;74.17;102233.44;4971322;28;20519;-72
2022/06/17 05:35:46;;;;;;;20.00;13.25;;;;;;;16.99;74.15;102233.94;4984905;28;20022;-70
2022/06/17 05:38:12;;;;;;;18.85;14.63;;;;;;;17.05;74.71;102235.34;4975874;28;20458;-72
2022/06/17 05:40:39;;;;;;;19.38;14.38;;;;;;;17.13;76.41;102240.25;4969660;28;20108;-71
2022/06/17 05:43:05;;;;;;;16.73;13.80;;;;;;;17.19;76.25;102243.38;4969871;28;20038;-71
2022/06/17 05:45:31;;;;;;;16.75;13.10;;;;;;;17.29;74.09;102241.66;4986155;28;20031;-69
2022/06/17 05:48:19;;;;;;;18.13;13.38;;;;;;;17.51;73.94;102229.84;4986121;28;20381;-71
2022/06/17 05:51:04;;;;;;;19.88;12.98;;;;;;;17.70;73.95;102218.22;4989742;28;20205;-72
2022/06/17 05:53:49;;;;;;;19.83;12.85;;;;;;;17.85;73.17;102225.28;4986026;28;20084;-72
2022/06/17 05:56:31;;;;;;;20.92;13.25;;;;;;;18.04;73.38;102232.03;4971092;28;20049;-71
2022/06/17 05:58:57;;;;;;;18.83;13.45;;;;;;;18.17;73.50;102227.28;4969315;28;20190;-73
2022/06/17 06:01:22;;;;;;;17.92;13.50;;;;;;;18.26;72.44;102220.13;4985401;28;20050;-71
2022/06/17 06:03:47;;;;;;;18.88;12.93;;;;;;;18.34;72.63;102220.38;4997533;28;20034;-72
2022/06/17 06:06:14;;;;;;;17.65;13.05;;;;;;;18.33;70.60;102205.72;4972053;28;20466;-70
2022/06/17 06:08:43;;;;;;;17.15;12.20;;;;;;;18.36;70.86;102194.41;4971662;28;20041;-72
2022/06/17 06:11:08;;;;;;;15.13;11.73;;;;;;;18.44;69.90;102199.31;4985821;28;20630;-72
2022/06/17 06:13:39;;;;;;;17.98;11.93;;;;;;;18.51;70.49;102197.78;4972094;28;20045;-71
2022/06/17 06:16:05;;;;;;;15.60;12.45;;;;;;;18.57;69.09;102200.03;4978331;28;20034;-72
2022/06/17 06:18:39;;;;;;;17.42;12.60;;;;;;;18.63;71.17;102198.63;4968530;28;20041;-72
2022/06/17 06:21:10;;;;;;;19.70;13.10;;;;;;;18.63;66.96;102193.09;4987050;28;20405;-72
2022/06/17 06:23:38;;;;;;;15.73;12.32;;;;;;;18.74;68.22;102194.97;4989171;28;20107;-72
2022/06/17 06:26:07;;;;;;;13.65;12.02;;;;;;;18.86;71.15;102203.06;4982159;28;20506;-72
2022/06/17 06:28:34;;;;;;;19.88;12.63;;;;;;;18.99;70.51;102211.19;4975140;28;20493;-72
2022/06/17 06:31:34;;;;;;;19.17;12.57;;;;;;;18.99;68.72;102207.53;4987435;28;20516;-72
2022/06/17 06:34:05;;;;;;;98.18;16.83;;;;;;;19.08;66.50;102213.13;4985169;28;20508;-72
2022/06/17 06:36:38;;;;;;;49.25;13.65;;;;;;;19.21;68.50;102215.72;4983977;28;20478;-72
2022/06/17 06:39:04;;;;;;;23.20;12.20;;;;;;;19.34;71.09;102218.25;4991236;28;20034;-72
2022/06/17 06:41:29;;;;;;;15.98;10.43;;;;;;;19.43;68.33;102225.72;4983414;28;20030;-71
2022/06/17 06:43:55;;;;;;;19.23;11.55;;;;;;;19.49;69.27;102225.19;4977448;28;20104;-72
2022/06/17 06:46:39;;;;;;;14.00;10.95;;;;;;;19.61;69.02;102224.13;4986478;28;20065;-73
2022/06/17 06:49:05;;;;;;;13.70;10.20;;;;;;;19.74;67.37;102220.28;4951519;28;20415;-72
2022/06/17 06:51:32;;;;;;;13.27;10.40;;;;;;;19.87;68.46;102219.03;4986343;28;20033;-71
2022/06/17 06:53:58;;;;;;;15.82;10.02;;;;;;;20.02;66.26;102213.16;4970292;28;20034;-73
2022/06/17 06:56:24;;;;;;;12.90;9.32;;;;;;;20.11;65.48;102215.06;4985926;28;20022;-72
2022/06/17 06:58:50;;;;;;;13.48;8.98;;;;;;;20.23;66.09;102219.44;4967255;28;20125;-73
2022/06/17 07:01:15;;;;;;;14.48;9.18;;;;;;;20.33;65.47;102227.78;4973839;28;20562;-72
2022/06/17 07:03:40;;;;;;;14.05;9.43;;;;;;;20.43;64.74;102231.47;5005213;28;20032;-72
2022/06/17 07:06:06;;;;;;;13.95;9.30;;;;;;;;;;4985828;28;20482;-72
2022/06/17 07:08:34;;;;;;;11.23;9.05;;;;;;;20.63;64.75;102230.50;5006459;28;20509;-72
2022/06/17 07:10:59;;;;;;;15.25;9.40;;;;;;;20.72;63.84;102226.03;5004877;28;20034;-72
2022/06/17 07:13:27;;;;;;;15.10;9.48;;;;;;;20.87;63.35;102229.22;4989938;28;20168;-71
2022/06/17 07:15:56;;;;;;;12.43;8.50;;;;;;;20.90;60.19;102228.94;4968973;28;20442;-73
2022/06/17 07:18:32;;;;;;;9.60;8.38;;;;;;;20.92;60.74;102224.13;5000360;28;20123;-73
2022/06/17 07:21:00;;;;;;;9.82;7.05;;;;;;;20.86;58.38;102216.41;5000662;28;20034;-71
2022/06/17 07:23:36;;;;;;;12.43;7.20;;;;;;;20.99;59.91;102214.25;4986371;28;20065;-71
2022/06/17 07:26:06;;;;;;;13.80;6.72;;;;;;;21.15;60.01;102220.03;4998462;28;20084;-72
2022/06/17 07:28:31;;;;;;;8.13;5.90;;;;;;;21.14;57.08;102218.31;4995045;28;20038;-72
2022/06/17 07:30:58;;;;;;;7.97;5.55;;;;;;;21.17;56.92;102214.38;4998413;28;20103;-71
2022/06/17 07:33:25;;;;;;;8.93;5.38;;;;;;;21.26;58.40;102213.47;5001044;28;20384;-72
2022/06/17 07:35:55;;;;;;;8.45;5.75;;;;;;;21.26;57.37;102218.13;5001019;28;20038;-69
2022/06/17 07:41:09;;;;;;;8.45;5.90;;;;;;;21.25;57.15;102208.97;5000691;28;20049;-72
2022/06/17 07:43:35;;;;;;;8.82;5.95;;;;;;;21.32;57.97;102212.94;5000697;28;20025;-72
2022/06/17 07:46:03;;;;;;;10.25;5.88;;;;;;;21.36;58.73;102216.28;4987419;28;20413;-72
2022/06/17 07:48:29;;;;;;;7.45;5.28;;;;;;;21.38;58.06;102233.63;4989812;28;20100;-72
2022/06/17 07:50:58;;;;;;;9.70;6.60;;;;;;;21.43;57.95;102233.16;4988332;28;20136;-72
2022/06/17 07:53:28;;;;;;;8.52;5.55;;;;;;;21.47;55.77;102229.97;5008660;28;20124;-72
2022/06/17 07:55:55;;;;;;;7.75;6.00;;;;;;;21.55;57.02;102221.78;5006352;28;20063;-73
2022/06/17 07:58:20;;;;;;;8.63;4.95;;;;;;;21.69;57.06;102214.03;4988597;28;20053;-72
2022/06/17 08:00:47;;;;;;;8.10;4.68;;;;;;;21.76;58.59;102216.03;5008094;28;20054;-71
2022/06/17 08:03:14;;;;;;;7.32;5.15;;;;;;;21.95;56.50;102217.84;5007927;28;20112;-72
2022/06/17 08:05:43;;;;;;;10.20;4.30;;;;;;;22.14;56.20;102220.56;4987907;28;20081;-72
2022/06/17 08:08:09;;;;;;;5.00;4.18;;;;;;;22.54;55.00;102224.00;4996695;28;20224;-72
2022/06/17 08:10:36;;;;;;;7.93;4.25;;;;;;;22.92;53.34;102223.75;4987648;28;20034;-72
2022/06/17 08:13:04;;;;;;;9.02;4.35;;;;;;;23.43;54.46;102233.22;5000510;28;20117;-71
2022/06/17 08:15:29;;;;;;;7.22;4.35;;;;;;;23.93;51.73;102234.47;5008729;28;20053;-73
2022/06/17 08:17:56;;;;;;;6.65;3.83;;;;;;;24.15;49.19;102233.00;4987138;28;20030;-71
2022/06/17 08:20:26;;;;;;;10.35;3.58;;;;;;;25.00;50.84;102236.63;4994307;28;20120;-73
2022/06/17 08:22:52;;;;;;;7.97;3.95;;;;;;;25.47;46.49;102233.19;4994290;28;20117;-72
2022/06/17 08:25:17;;;;;;;6.90;3.25;;;;;;;25.88;43.00;102230.34;4983917;28;20034;-70
2022/06/17 08:27:45;;;;;;;8.18;3.45;;;;;;;25.97;43.38;102234.00;4996916;28;20088;-72
2022/06/17 08:30:12;;;;;;;7.43;3.40;;;;;;;25.89;40.98;102240.47;5004769;28;20030;-72
2022/06/17 08:32:48;;;;;;;6.45;3.50;;;;;;;25.79;44.62;102232.31;5004948;28;20060;-73
2022/06/17 08:35:20;;;;;;;5.13;3.50;;;;;;;25.90;41.95;102217.97;5000116;28;20042;-73
2022/06/17 08:37:48;;;;;;;4.95;3.33;;;;;;;26.06;40.38;102199.44;5006988;28;20074;-73
2022/06/17 08:40:31;;;;;;;3.97;3.40;;;;;;;26.41;42.65;102207.31;4987971;28;20041;-73
2022/06/17 08:43:13;;;;;;;10.27;3.53;;;;;;;26.84;42.98;102196.63;5005057;28;20192;-73
2022/06/17 08:45:55;;;;;;;5.10;2.97;;;;;;;27.25;40.54;102201.91;4986832;28;20059;-74
2022/06/17 08:48:35;;;;;;;;;;;;;;;27.48;43.32;102201.88;4985798;28;20052;-72
2022/06/17 08:51:38;;;;;;;7.13;3.03;;;;;;;27.48;42.21;102213.06;4999906;28;20415;-71
2022/06/17 08:54:27;;;;;;;6.25;3.17;;;;;;;27.55;39.72;102211.22;5007544;28;20042;-71
2022/06/17 08:57:16;;;;;;;5.40;3.45;;;;;;;27.38;39.74;102210.53;4990100;28;20080;-72
2022/06/17 09:00:05;;;;;;;6.93;3.35;;;;;;;27.51;42.22;102215.47;5000370;28;20922;-74
2022/06/17 09:02:49;;;;;;;5.05;2.78;;;;;;;27.90;42.79;102206.00;5003688;28;20470;-67
2022/06/17 09:05:40;;;;;;;5.53;3.47;;;;;;;28.24;40.44;102216.59;5001591;28;20087;-72
2022/06/17 09:08:32;;;;;;;17.13;3.63;;;;;;;28.59;41.21;102219.69;4992936;28;20046;-72
2022/06/17 09:11:19;;;;;;;6.00;3.58;;;;;;;28.70;39.28;102216.34;4985907;28;20482;-73
2022/06/17 09:14:22;;;;;;;7.07;4.07;;;;;;;28.63;37.76;102221.91;4947536;28;20049;-70
2022/06/17 09:17:24;;;;;;;6.47;3.40;;;;;;;28.72;37.33;102201.09;4970565;28;20504;-71
2022/06/17 09:19:55;;;;;;;7.60;3.95;;;;;;;28.69;34.07;102197.81;5000028;28;20997;-72
2022/06/17 09:22:32;;;;;;;13.00;3.83;;;;;;;29.03;37.79;102194.34;4987179;28;20069;-71
2022/06/17 09:25:06;;;;;;;6.55;3.35;;;;;;;29.38;38.08;102206.53;4989810;28;20445;-72
2022/06/17 09:27:37;;;;;;;6.50;3.40;;;;;;;29.86;36.82;102208.66;5000642;28;20385;-73
2022/06/17 09:30:02;;;;;;;5.32;3.20;;;;;;;29.97;36.43;102203.31;5006526;28;20038;-71
2022/06/17 09:32:42;;;;;;;6.63;3.75;;;;;;;30.21;33.67;102199.16;5007366;28;20105;-73
2022/06/17 09:35:29;;;;;;;6.60;3.70;;;;;;;30.29;37.99;102209.34;5000825;28;20034;-72
2022/06/17 09:38:13;;;;;;;6.70;3.67;;;;;;;30.06;34.70;102212.44;5006542;28;20044;-73
2022/06/17 09:40:44;;;;;;;7.20;3.50;;;;;;;30.04;33.58;102200.56;5003383;28;20056;-70
2022/06/17 09:43:20;;;;;;;6.37;3.60;;;;;;;30.27;32.71;102200.28;5002776;28;20405;-70
2022/06/17 09:45:52;;;;;;;8.20;3.38;;;;;;;30.42;34.47;102200.97;5003618;28;20400;-72
2022/06/17 09:48:21;;;;;;;7.97;3.25;;;;;;;30.53;31.92;102204.25;5006904;28;20070;-72
2022/06/17 09:50:54;;;;;;;7.57;3.47;;;;;;;30.77;34.31;102200.03;5000810;28;20040;-70
2022/06/17 09:53:31;;;;;;;6.53;3.90;;;;;;;31.02;33.17;102206.81;5007016;28;20042;-72
2022/06/17 09:56:07;;;;;;;6.63;3.85;;;;;;;30.88;30.85;102205.91;5004587;28;20026;-72
2022/06/17 09:58:57;;;;;;;12.95;3.42;;;;;;;30.69;29.21;102198.28;5000797;28;20053;-73
2022/06/17 10:01:24;;;;;;;5.68;2.95;;;;;;;30.83;33.07;102197.25;5005767;28;20049;-69
2022/06/17 10:03:50;;;;;;;6.10;3.42;;;;;;;30.62;31.93;102198.25;5004358;28;20041;-72
2022/06/17 10:06:43;;;;;;;13.43;3.40;;;;;;;30.87;34.28;102192.94;5000645;28;20060;-73
2022/06/17 10:09:31;;;;;;;5.80;3.00;;;;;;;30.96;32.87;102177.63;5006189;28;20509;-73
2022/06/17 10:12:07;;;;;;;8.82;3.13;;;;;;;31.05;32.91;102183.88;5002742;28;20042;-72
2022/06/17 10:14:50;;;;;;;8.30;2.60;;;;;;;31.52;34.01;102184.78;4969455;28;20121;-71
2022/06/17 10:20:42;;;;;;;4.03;2.80;;;;;;;31.67;32.57;102178.94;4985886;28;20060;-69
2022/06/17 10:23:47;;;;;;;16.50;2.92;;;;;;;31.92;32.62;102168.72;4990412;28;20040;-72
2022/06/17 10:26:21;;;;;;;4.78;2.83;;;;;;;31.78;29.50;102160.50;4994452;28;20030;-72
2022/06/17 10:29:05;;;;;;;94.78;7.50;;;;;;;31.70;29.78;102164.41;5002158;28;20061;-73
2022/06/17 10:31:35;;;;;;;21.90;3.25;;;;;;;31.69;29.67;102155.09;5003015;28;20038;-68
2022/06/17 10:34:12;;;;;;;8.75;2.45;;;;;;;31.75;31.38;102165.47;4995794;28;20061;-67
2022/06/17 10:36:39;;;;;;;4.30;2.30;;;;;;;31.65;28.15;102165.06;4987078;28;20398;-71
2022/06/17 10:39:06;;;;;;;2.25;2.00;;;;;;;31.88;29.22;102164.63;4987247;28;20117;-72
2022/06/17 10:41:32;;;;;;;11.35;2.45;;;;;;;31.96;29.21;102164.38;4987178;28;20670;-71
2022/06/17 10:43:57;;;;;;;3.17;2.05;;;;;;;32.07;31.09;102159.16;4986983;28;20050;-72
2022/06/17 10:46:28;;;;;;;4.18;2.50;;;;;;;32.26;30.68;102169.47;4980888;28;20549;-71
2022/06/17 10:49:01;;;;;;;8.73;2.30;;;;;;;32.49;31.49;102164.19;5004579;28;20034;-71
2022/06/17 10:51:27;;;;;;;6.05;1.92;;;;;;;32.53;28.81;102158.97;4987583;28;20042;-72
2022/06/17 10:53:57;;;;;;;4.05;1.90;;;;;;;32.70;28.81;102156.50;5000461;28;20477;-73
2022/06/17 10:56:48;;;;;;;3.63;2.10;;;;;;;32.96;30.54;102153.50;4995497;28;20113;-71
2022/06/17 10:59:14;;;;;;;5.20;1.70;;;;;;;32.92;25.30;102152.25;4993785;28;20501;-72
2022/06/17 11:01:58;;;;;;;3.30;2.08;;;;;;;32.61;27.84;102153.06;5005100;28;20045;-71
2022/06/17 11:04:28;;;;;;;3.50;2.17;;;;;;;32.42;25.58;102154.06;5001306;28;20045;-69
2022/06/17 11:07:23;;;;;;;4.55;2.15;;;;;;;32.54;30.39;102140.09;5001575;28;20493;-71
2022/06/17 11:09:54;;;;;;;4.93;2.20;;;;;;;32.52;29.64;102136.66;4987065;28;20382;-72
2022/06/17 11:12:24;;;;;;;4.30;2.10;;;;;;;32.69;30.82;102132.19;4986322;28;20046;-72
2022/06/17 11:14:55;;;;;;;6.28;2.03;;;;;;;32.94;29.50;102135.09;4986741;28;20057;-71
2022/06/17 11:17:43;;;;;;;6.38;2.05;;;;;;;33.29;29.77;102124.16;4986836;28;20574;-71
2022/06/17 11:20:26;;;;;;;2.38;1.70;;;;;;;33.50;29.28;102123.75;4985454;28;20042;-71
2022/06/17 11:23:02;;;;;;;7.57;2.10;;;;;;;33.16;28.77;102119.53;4995134;28;20053;-71
2022/06/17 11:25:30;;;;;;;6.15;1.80;;;;;;;33.37;30.09;102117.38;4992120;28;20038;-72
2022/06/17 11:28:07;;;;;;;3.58;1.95;;;;;;;33.25;29.57;102115.31;4990912;28;20053;-72
2022/06/17 11:30:37;;;;;;;4.90;1.90;;;;;;;33.38;29.31;102113.44;4973108;28;20482;-70
2022/06/17 11:33:21;;;;;;;2.63;1.75;;;;;;;33.54;28.18;102100.72;4993286;28;20050;-72
2022/06/17 11:35:46;;;;;;;3.47;1.70;;;;;;;33.53;26.75;102101.81;4999260;28;20038;-71
2022/06/17 11:38:14;;;;;;;2.10;1.73;;;;;;;33.49;24.85;102099.47;4989348;28;20067;-71
2022/06/17 11:40:51;;;;;;;3.53;1.70;;;;;;;33.41;27.05;102101.69;4990267;28;20049;-73
2022/06/17 11:43:32;;;;;;;12.57;2.45;;;;;;;33.51;25.79;102097.25;4972238;28;20043;-72
2022/06/17 11:46:06;;;;;;;9.90;1.85;;;;;;;33.39;29.23;102096.28;4990252;28;20462;-71
2022/06/17 11:48:32;;;;;;;3.67;2.08;;;;;;;33.42;26.92;102094.94;4992947;28;20046;-71
2022/06/17 11:51:06;;;;;;;4.03;2.10;;;;;;;33.66;30.91;102098.84;4987037;28;20041;-72
2022/06/17 11:53:46;;;;;;;3.30;1.95;;;;;;;34.03;27.56;102090.38;4990432;28;20818;-72
2022/06/17 11:56:25;;;;;;;2.10;1.73;;;;;;;33.89;28.73;102086.84;4989865;28;20065;-71
2022/06/17 11:58:57;;;;;;;2.63;1.67;;;;;;;33.71;28.24;102080.09;4989351;28;20121;-72